createdAt,value
2022-10-26T00:02:09.807Z,16.75
2022-10-26T00:07:12.973Z,16.76
2022-10-26T00:12:16.918Z,16.77
2022-10-26T00:17:19.606Z,16.77
2022-10-26T00:22:22.174Z,16.77
2022-10-26T00:27:26.168Z,16.76
2022-10-26T00:32:29.071Z,16.76
2022-10-26T00:37:31.633Z,16.74
2022-10-26T00:42:35.588Z,16.76
2022-10-26T00:47:41.281Z,16.76
2022-10-26T00:52:43.888Z,16.74
2022-10-26T00:57:48.354Z,16.77
2022-10-26T01:02:52.761Z,16.74
2022-10-26T01:07:55.748Z,16.75
2022-10-26T01:13:00.047Z,16.74
2022-10-26T01:18:09.888Z,16.76
2022-10-26T01:23:18.513Z,16.74
2022-10-26T01:28:36.290Z,16.74
2022-10-26T01:33:45.721Z,16.74
2022-10-26T01:38:54.155Z,16.73
2022-10-26T01:43:59.404Z,16.75
2022-10-26T01:49:07.710Z,16.74
2022-10-26T01:54:10.544Z,16.73
2022-10-26T01:59:36.871Z,16.74
2022-10-26T02:04:50.948Z,16.74
2022-10-26T02:09:58.151Z,16.72
2022-10-26T02:15:07.659Z,16.75
2022-10-26T02:20:15.520Z,16.74
2022-10-26T02:25:20.113Z,16.74
2022-10-26T02:30:25.072Z,16.74
2022-10-26T02:35:32.703Z,16.75
2022-10-26T02:40:36.104Z,16.74
2022-10-26T02:45:42.147Z,16.76
2022-10-26T02:50:52.891Z,16.75
2022-10-26T02:55:55.606Z,16.77
2022-10-26T03:00:59.078Z,16.75
2022-10-26T03:06:03.114Z,16.76
2022-10-26T03:11:06.399Z,16.77
2022-10-26T03:16:09.564Z,16.74
2022-10-26T03:21:13.477Z,16.75
2022-10-26T03:26:16.168Z,16.76
2022-10-26T03:31:18.860Z,16.75
2022-10-26T03:36:22.820Z,16.79
2022-10-26T03:41:25.392Z,16.76
2022-10-26T03:46:28.019Z,16.77
2022-10-26T03:51:32.212Z,16.77
2022-10-26T03:56:34.824Z,16.77
2022-10-26T04:01:37.565Z,16.78
2022-10-26T04:06:41.620Z,16.78
2022-10-26T04:11:44.323Z,16.78
2022-10-26T04:16:46.982Z,16.78
2022-10-26T04:21:52.004Z,16.76
2022-10-26T04:26:54.683Z,16.76
2022-10-26T04:31:57.366Z,16.75
2022-10-26T04:37:01.394Z,16.75
2022-10-26T04:42:04.050Z,16.76
2022-10-26T04:47:06.793Z,16.75
2022-10-26T04:52:10.794Z,16.75
2022-10-26T04:57:13.513Z,16.75
2022-10-26T05:02:16.406Z,16.77
2022-10-26T05:07:20.558Z,16.75
2022-10-26T05:12:23.443Z,16.76
2022-10-26T05:17:26.333Z,16.74
2022-10-26T05:22:30.535Z,16.75
2022-10-26T05:27:33.277Z,16.78
2022-10-26T05:32:35.894Z,16.78
2022-10-26T05:37:40.078Z,16.78
2022-10-26T05:42:43.270Z,16.78
2022-10-26T05:47:46.835Z,16.78
2022-10-26T05:52:51.373Z,16.79
2022-10-26T05:57:54.724Z,16.80
2022-10-26T06:03:08.688Z,16.79
2022-10-26T06:08:13.252Z,16.81
2022-10-26T06:13:16.465Z,16.82
2022-10-26T06:18:26.019Z,16.80
2022-10-26T06:23:45.639Z,16.82
2022-10-26T06:28:53.650Z,16.84
2022-10-26T06:34:00.613Z,16.83
2022-10-26T06:39:07.538Z,16.83
2022-10-26T06:44:12.620Z,16.83
2022-10-26T06:49:20.958Z,16.84
2022-10-26T06:54:31.283Z,16.86
2022-10-26T06:59:42.004Z,16.87
2022-10-26T07:04:44.957Z,16.86
2022-10-26T07:09:49.087Z,16.87
2022-10-26T07:14:51.681Z,16.90
2022-10-26T07:19:54.295Z,16.92
2022-10-26T07:25:02.013Z,16.96
2022-10-26T07:30:06.900Z,16.99
2022-10-26T07:35:09.872Z,17.02
2022-10-26T07:40:14.029Z,17.09
2022-10-26T07:45:16.761Z,17.19
2022-10-26T07:50:19.510Z,17.50
2022-10-26T07:55:23.477Z,17.90
2022-10-26T08:00:26.241Z,18.08
2022-10-26T08:05:29.147Z,18.19
2022-10-26T08:10:33.205Z,18.28
2022-10-26T08:15:35.891Z,18.32
2022-10-26T08:20:38.559Z,18.35
2022-10-26T08:25:42.519Z,18.38
2022-10-26T08:30:45.119Z,18.43
2022-10-26T08:35:47.748Z,18.47
2022-10-26T08:40:52.341Z,18.56
2022-10-26T08:45:57.957Z,18.60
2022-10-26T08:51:02.550Z,18.65
2022-10-26T08:56:08.340Z,18.65
2022-10-26T09:01:11.236Z,18.35
2022-10-26T09:06:26.238Z,18.28
2022-10-26T09:11:40.802Z,18.39
2022-10-26T09:16:52.312Z,18.21
2022-10-26T09:21:59.638Z,18.43
2022-10-26T09:27:10.204Z,18.28
2022-10-26T09:32:18.351Z,18.27
2022-10-26T09:37:23.364Z,18.40
2022-10-26T09:42:31.271Z,18.43
2022-10-26T09:47:36.535Z,18.47
2022-10-26T09:52:39.234Z,18.46
2022-10-26T09:57:45.951Z,18.44
2022-10-26T10:02:52.187Z,18.44
2022-10-26T10:08:11.260Z,18.40
2022-10-26T10:13:20.750Z,18.37
2022-10-26T10:18:24.411Z,18.39
2022-10-26T10:23:29.862Z,18.38
2022-10-26T10:28:34.408Z,18.36
2022-10-26T10:33:40.030Z,18.38
2022-10-26T10:38:44.309Z,18.37
2022-10-26T10:43:50.203Z,18.35
2022-10-26T10:48:56.543Z,18.35
2022-10-26T10:53:59.290Z,18.36
2022-10-26T10:59:23.255Z,18.35
2022-10-26T11:04:36.621Z,18.38
2022-10-26T11:09:41.843Z,18.40
2022-10-26T11:14:49.543Z,18.37
2022-10-26T11:19:55.600Z,18.37
2022-10-26T11:25:01.899Z,18.40
2022-10-26T11:30:07.759Z,18.41
2022-10-26T11:35:16.188Z,18.41
2022-10-26T11:40:25.291Z,18.41
2022-10-26T11:45:32.198Z,18.43
2022-10-26T11:50:36.075Z,18.41
2022-10-26T11:55:39.693Z,18.45
2022-10-26T12:00:47.542Z,18.44
2022-10-26T12:05:51.737Z,18.46
2022-10-26T12:11:01.367Z,18.48
2022-10-26T12:16:12.298Z,18.49
2022-10-26T12:21:15.949Z,18.50
2022-10-26T12:26:40.367Z,18.51
2022-10-26T12:31:45.000Z,18.52
2022-10-26T12:37:12.327Z,18.53
2022-10-26T12:42:29.946Z,18.56
2022-10-26T12:48:10.978Z,18.55
2022-10-26T12:53:23.811Z,18.55
2022-10-26T12:59:10.273Z,18.58
2022-10-26T13:04:45.460Z,18.59
2022-10-26T13:09:56.040Z,18.60
2022-10-26T13:15:05.492Z,18.62
2022-10-26T13:20:15.413Z,18.63
2022-10-26T13:25:23.932Z,18.63
2022-10-26T13:30:45.604Z,18.65
2022-10-26T13:35:48.414Z,18.66
2022-10-26T13:40:54.680Z,18.65
2022-10-26T13:46:01.242Z,18.67
2022-10-26T13:51:05.906Z,18.69
2022-10-26T13:56:19.072Z,18.69
2022-10-26T14:01:25.775Z,18.71
2022-10-26T14:06:31.573Z,18.72
2022-10-26T14:11:38.069Z,18.72
2022-10-26T14:16:46.396Z,18.73
2022-10-26T14:21:50.546Z,18.73
2022-10-26T14:26:54.471Z,18.74
2022-10-26T14:31:57.246Z,18.75
2022-10-26T14:37:01.929Z,18.76
2022-10-26T14:42:13.621Z,18.76
2022-10-26T14:47:20.451Z,18.77
2022-10-26T14:52:27.666Z,18.78
2022-10-26T14:57:35.760Z,18.78
2022-10-26T15:02:38.503Z,18.79
2022-10-26T15:07:43.497Z,18.79
2022-10-26T15:12:47.465Z,18.81
2022-10-26T15:17:52.189Z,18.82
2022-10-26T15:22:56.237Z,18.84
2022-10-26T15:28:12.867Z,18.85
2022-10-26T15:33:21.864Z,18.86
2022-10-26T15:38:25.849Z,18.85
2022-10-26T15:43:32.790Z,18.86
2022-10-26T15:48:36.059Z,18.88
2022-10-26T15:53:38.729Z,18.90
2022-10-26T15:58:42.715Z,18.93
2022-10-26T16:03:45.447Z,18.94
2022-10-26T16:08:51.560Z,18.95
2022-10-26T16:13:58.241Z,18.96
2022-10-26T16:19:29.118Z,18.91
2022-10-26T16:24:26.640Z,18.93
2022-10-26T16:29:31.127Z,18.92
2022-10-26T16:34:33.872Z,18.87
2022-10-26T16:39:36.523Z,18.83
2022-10-26T16:44:40.576Z,18.78
2022-10-26T16:49:43.351Z,18.72
2022-10-26T16:54:46.036Z,18.70
2022-10-26T16:59:50.051Z,18.67
2022-10-26T17:04:52.756Z,18.65
2022-10-26T17:09:55.441Z,18.62
2022-10-26T17:15:00.571Z,18.61
2022-10-26T17:20:03.460Z,18.62
2022-10-26T17:25:06.838Z,18.60
2022-10-26T17:30:11.814Z,18.63
2022-10-26T17:35:16.730Z,18.62
2022-10-26T17:40:20.818Z,18.63
2022-10-26T17:45:24.814Z,18.63
2022-10-26T17:50:27.461Z,18.66
2022-10-26T17:55:30.124Z,18.65
2022-10-26T18:00:34.158Z,18.67
2022-10-26T18:05:36.799Z,18.67
2022-10-26T18:10:39.503Z,18.69
2022-10-26T18:15:43.589Z,18.68
2022-10-26T18:20:46.788Z,18.70
2022-10-26T18:25:49.438Z,18.69
2022-10-26T18:30:53.478Z,18.70
2022-10-26T18:36:01.824Z,18.66
2022-10-26T18:41:05.207Z,18.66
2022-10-26T18:46:10.700Z,18.66
2022-10-26T18:51:14.824Z,18.65
2022-10-26T18:56:18.799Z,18.62
2022-10-26T19:01:24.615Z,18.59
2022-10-26T19:06:29.278Z,18.56
2022-10-26T19:11:32.555Z,18.54
2022-10-26T19:16:46.309Z,18.54
2022-10-26T19:21:50.355Z,18.55
2022-10-26T19:26:54.019Z,18.51
2022-10-26T19:31:58.051Z,18.52
2022-10-26T19:37:00.752Z,18.49
2022-10-26T19:42:03.451Z,18.47
2022-10-26T19:47:07.822Z,18.46
2022-10-26T19:52:10.549Z,18.44
2022-10-26T19:57:13.197Z,18.42
2022-10-26T20:02:17.253Z,18.42
2022-10-26T20:07:19.963Z,18.39
2022-10-26T20:12:22.680Z,18.38
2022-10-26T20:17:29.121Z,18.37
2022-10-26T20:22:31.812Z,18.35
2022-10-26T20:27:34.453Z,18.34
2022-10-26T20:32:38.501Z,18.31
2022-10-26T20:37:41.678Z,18.33
2022-10-26T20:42:44.838Z,18.31
2022-10-26T20:47:49.965Z,18.30
2022-10-26T20:52:56.929Z,18.27
2022-10-26T20:58:03.314Z,18.25
2022-10-26T21:03:07.409Z,18.23
2022-10-26T21:08:10.084Z,18.22
2022-10-26T21:13:13.194Z,18.23
2022-10-26T21:18:17.355Z,18.20
2022-10-26T21:23:20.144Z,18.22
2022-10-26T21:28:22.794Z,18.21
2022-10-26T21:33:31.841Z,18.20
2022-10-26T21:38:35.326Z,18.18
2022-10-26T21:43:39.093Z,18.15
2022-10-26T21:48:43.651Z,18.17
2022-10-26T21:53:46.721Z,18.14
2022-10-26T21:58:50.026Z,18.13
2022-10-26T22:03:54.043Z,18.09
2022-10-26T22:08:57.173Z,18.10
2022-10-26T22:13:59.845Z,18.11
2022-10-26T22:19:06.178Z,18.12
2022-10-26T22:24:09.169Z,18.07
2022-10-26T22:29:11.829Z,18.07
2022-10-26T22:34:18.824Z,18.04
2022-10-26T22:39:21.555Z,18.05
2022-10-26T22:44:24.242Z,18.03
2022-10-26T22:49:28.355Z,18.03
2022-10-26T22:54:31.039Z,17.98
2022-10-26T22:59:33.673Z,17.99
2022-10-26T23:04:37.683Z,17.99
2022-10-26T23:09:40.388Z,17.99
2022-10-26T23:14:43.027Z,17.99
2022-10-26T23:19:47.109Z,17.96
2022-10-26T23:24:49.822Z,17.93
2022-10-26T23:29:52.451Z,17.95
2022-10-26T23:34:56.464Z,17.97
2022-10-26T23:39:59.496Z,17.93
2022-10-26T23:45:02.129Z,17.93
2022-10-26T23:50:07.083Z,17.92
2022-10-26T23:55:10.360Z,17.91
